createdAt,value
2019-04-30T00:02:29.308Z,12.89
2019-04-30T00:04:56.971Z,12.82
2019-04-30T00:07:29.989Z,12.70
2019-04-30T00:10:01.801Z,12.70
2019-04-30T00:12:35.917Z,12.70
2019-04-30T00:15:11.129Z,12.73
2019-04-30T00:17:40.998Z,12.69
2019-04-30T00:20:12.868Z,12.58
2019-04-30T00:22:48.145Z,12.50
2019-04-30T00:25:19.647Z,12.48
2019-04-30T00:27:51.973Z,12.39
2019-04-30T00:30:25.224Z,12.40
2019-04-30T00:32:57.203Z,12.27
2019-04-30T00:35:29.087Z,12.25
2019-04-30T00:38:00.974Z,12.23
2019-04-30T00:40:32.858Z,12.27
2019-04-30T00:43:08.869Z,12.25
2019-04-30T00:45:40.026Z,12.18
2019-04-30T00:48:19.873Z,12.11
2019-04-30T00:50:46.549Z,12.07
2019-04-30T00:53:18.425Z,12.03
2019-04-30T00:55:50.304Z,12.00
2019-04-30T00:58:28.960Z,11.92
2019-04-30T01:01:09.570Z,11.85
2019-04-30T01:03:49.372Z,11.88
2019-04-30T01:06:26.756Z,11.81
2019-04-30T01:08:51.641Z,11.75
2019-04-30T01:11:25.409Z,11.77
2019-04-30T01:13:59.059Z,11.80
2019-04-30T01:16:33.159Z,11.83
2019-04-30T01:19:05.659Z,11.75
2019-04-30T01:21:40.194Z,11.75
2019-04-30T01:24:12.361Z,11.81
2019-04-30T01:26:44.328Z,11.72
2019-04-30T01:29:16.131Z,11.73
2019-04-30T01:31:48.872Z,11.66
2019-04-30T01:34:20.769Z,11.58
2019-04-30T01:36:52.569Z,11.54
2019-04-30T01:39:28.470Z,11.56
2019-04-30T01:41:58.694Z,11.47
2019-04-30T01:44:31.625Z,11.45
2019-04-30T01:47:04.493Z,11.36
2019-04-30T01:49:42.921Z,11.39
2019-04-30T01:52:09.874Z,11.33
2019-04-30T01:54:41.670Z,11.37
2019-04-30T01:57:35.136Z,11.33
2019-04-30T02:00:35.030Z,11.31
2019-04-30T02:03:08.751Z,11.28
2019-04-30T02:05:40.530Z,11.28
2019-04-30T02:08:12.403Z,11.21
2019-04-30T02:10:44.228Z,11.18
2019-04-30T02:13:16.084Z,11.25
2019-04-30T02:15:49.370Z,11.16
2019-04-30T02:18:21.230Z,11.10
2019-04-30T02:20:53.102Z,11.10
2019-04-30T02:23:26.064Z,11.02
2019-04-30T02:25:58.929Z,10.92
2019-04-30T02:28:30.797Z,10.95
2019-04-30T02:31:02.806Z,10.89
2019-04-30T02:33:36.389Z,10.84
2019-04-30T02:36:36.210Z,10.80
2019-04-30T02:39:11.049Z,10.72
2019-04-30T02:41:41.999Z,10.64
2019-04-30T02:44:14.591Z,10.63
2019-04-30T02:46:50.331Z,10.60
2019-04-30T02:49:22.167Z,10.52
2019-04-30T02:51:54.478Z,10.53
2019-04-30T02:54:30.690Z,10.52
2019-04-30T02:57:11.615Z,10.41
2019-04-30T03:00:01.635Z,10.43
2019-04-30T03:02:35.239Z,10.37
2019-04-30T03:05:12.903Z,10.33
2019-04-30T03:07:41.025Z,10.34
2019-04-30T03:10:12.959Z,10.30
2019-04-30T03:12:45.265Z,10.32
2019-04-30T03:15:19.483Z,10.32
2019-04-30T03:18:00.756Z,10.31
2019-04-30T03:21:03.441Z,10.24
2019-04-30T03:23:35.260Z,10.11
2019-04-30T03:26:12.560Z,10.08
2019-04-30T03:28:40.634Z,10.14
2019-04-30T03:31:12.825Z,10.05
2019-04-30T03:33:44.676Z,9.99
2019-04-30T03:36:21.294Z,9.99
2019-04-30T03:38:50.272Z,9.97
2019-04-30T03:41:22.065Z,9.84
2019-04-30T03:43:53.851Z,9.83
2019-04-30T03:46:25.639Z,9.82
2019-04-30T03:49:00.105Z,9.82
2019-04-30T03:51:31.352Z,9.78
2019-04-30T03:54:03.947Z,9.74
2019-04-30T03:56:35.797Z,9.72
2019-04-30T03:59:10.109Z,9.65
2019-04-30T04:01:53.464Z,9.62
2019-04-30T04:04:44.240Z,9.65
2019-04-30T04:07:25.646Z,9.60
2019-04-30T04:10:10.237Z,9.55
2019-04-30T04:12:42.093Z,9.57
2019-04-30T04:15:14.065Z,9.62
2019-04-30T04:17:45.925Z,9.61
2019-04-30T04:20:20.055Z,9.51
2019-04-30T04:22:51.222Z,9.51
2019-04-30T04:25:23.080Z,9.55
2019-04-30T04:27:55.058Z,9.50
2019-04-30T04:30:29.550Z,9.45
2019-04-30T04:33:00.748Z,9.50
2019-04-30T04:35:32.762Z,9.52
2019-04-30T04:38:05.520Z,9.56
2019-04-30T04:40:39.833Z,9.55
2019-04-30T04:43:10.936Z,9.63
2019-04-30T04:45:43.806Z,9.65
2019-04-30T04:48:15.801Z,9.70
2019-04-30T04:50:50.225Z,9.72
2019-04-30T04:53:21.149Z,9.68
2019-04-30T04:55:52.946Z,9.72
2019-04-30T04:58:24.859Z,9.81
2019-04-30T05:00:59.122Z,9.79
2019-04-30T05:03:35.564Z,9.87
2019-04-30T05:06:11.341Z,9.88
2019-04-30T05:08:41.083Z,9.92
2019-04-30T05:11:13.946Z,9.96
2019-04-30T05:13:45.746Z,9.95
2019-04-30T05:16:19.112Z,9.98
2019-04-30T05:18:51.076Z,9.99
2019-04-30T05:21:22.861Z,9.98
2019-04-30T05:23:54.732Z,9.96
2019-04-30T05:26:28.570Z,10.01
2019-04-30T05:29:00.169Z,9.98
2019-04-30T05:31:32.126Z,10.02
2019-04-30T05:34:06.291Z,10.03
2019-04-30T05:36:39.173Z,10.15
2019-04-30T05:39:11.141Z,10.18
2019-04-30T05:41:43.018Z,10.20
2019-04-30T05:44:14.875Z,10.28
2019-04-30T05:46:46.658Z,10.41
2019-04-30T05:49:18.877Z,10.47
2019-04-30T05:51:55.469Z,10.44
2019-04-30T05:54:25.757Z,10.55
2019-04-30T05:56:59.389Z,10.65
2019-04-30T05:59:31.248Z,10.70
2019-04-30T06:02:03.106Z,10.70
2019-04-30T06:04:34.952Z,10.76
2019-04-30T06:07:08.587Z,10.78
2019-04-30T06:09:48.471Z,10.88
2019-04-30T06:12:42.501Z,11.02
2019-04-30T06:15:20.921Z,11.08
2019-04-30T06:18:00.938Z,11.16
2019-04-30T06:20:28.842Z,11.29
2019-04-30T06:23:01.059Z,11.34
2019-04-30T06:25:45.864Z,11.36
2019-04-30T06:28:09.771Z,11.44
2019-04-30T06:30:41.889Z,11.42
2019-04-30T06:33:13.792Z,11.50
2019-04-30T06:35:45.627Z,11.61
2019-04-30T06:38:18.509Z,11.69
2019-04-30T06:40:50.476Z,11.77
2019-04-30T06:43:23.378Z,11.86
2019-04-30T06:45:55.343Z,11.96
2019-04-30T06:48:29.398Z,12.01
2019-04-30T06:51:01.019Z,12.16
2019-04-30T06:53:32.872Z,12.30
2019-04-30T06:56:04.765Z,12.35
2019-04-30T06:58:36.624Z,12.40
2019-04-30T07:01:09.501Z,12.46
2019-04-30T07:03:41.459Z,12.59
2019-04-30T07:06:13.254Z,12.71
2019-04-30T07:09:04.033Z,12.75
2019-04-30T07:11:41.349Z,12.75
2019-04-30T07:14:13.272Z,12.83
2019-04-30T07:16:45.123Z,12.93
2019-04-30T07:19:29.991Z,13.01
2019-04-30T07:21:50.526Z,13.16
2019-04-30T07:24:22.462Z,13.28
2019-04-30T07:26:54.730Z,13.26
2019-04-30T07:29:29.549Z,13.37
2019-04-30T07:32:01.546Z,13.46
2019-04-30T07:34:37.049Z,13.48
2019-04-30T07:37:16.327Z,13.64
2019-04-30T07:39:41.060Z,13.72
2019-04-30T07:42:12.880Z,13.75
2019-04-30T07:44:44.672Z,13.80
2019-04-30T07:47:18.916Z,13.83
2019-04-30T07:49:55.094Z,13.87
2019-04-30T07:52:24.122Z,13.93
2019-04-30T07:54:56.893Z,14.04
2019-04-30T07:57:29.236Z,14.11
2019-04-30T08:00:02.314Z,14.21
2019-04-30T08:02:43.458Z,14.39
2019-04-30T08:05:19.858Z,14.39
2019-04-30T08:07:51.928Z,14.45
2019-04-30T08:10:23.818Z,14.70
2019-04-30T08:12:55.904Z,14.89
2019-04-30T08:15:29.582Z,14.89
2019-04-30T08:18:05.538Z,15.00
2019-04-30T08:20:35.107Z,15.23
2019-04-30T08:23:16.961Z,15.21
2019-04-30T08:25:40.908Z,15.30
2019-04-30T08:28:13.174Z,15.29
2019-04-30T08:30:45.042Z,15.50
2019-04-30T08:33:16.898Z,15.57
2019-04-30T08:35:49.869Z,15.66
2019-04-30T08:38:22.988Z,15.83
2019-04-30T08:40:58.049Z,15.80
2019-04-30T08:43:29.207Z,16.10
2019-04-30T08:46:01.137Z,16.17
2019-04-30T08:48:44.240Z,16.29
2019-04-30T08:51:06.832Z,16.31
2019-04-30T08:53:40.942Z,16.24
2019-04-30T08:56:12.749Z,16.37
2019-04-30T08:58:44.552Z,16.56
2019-04-30T09:01:17.283Z,16.76
2019-04-30T09:03:51.383Z,16.84
2019-04-30T09:06:29.091Z,16.77
2019-04-30T09:09:14.168Z,16.72
2019-04-30T09:11:54.686Z,16.79
2019-04-30T09:14:19.634Z,16.98
2019-04-30T09:16:52.530Z,17.08
2019-04-30T09:19:24.436Z,17.18
2019-04-30T09:21:58.886Z,17.37
2019-04-30T09:24:31.049Z,17.36
2019-04-30T09:27:05.881Z,17.56
2019-04-30T09:29:39.149Z,17.71
2019-04-30T09:32:11.098Z,17.97
2019-04-30T09:34:43.858Z,18.18
2019-04-30T09:37:15.711Z,18.36
2019-04-30T09:39:49.419Z,18.64
2019-04-30T09:42:21.102Z,18.70
2019-04-30T09:44:54.928Z,18.84
2019-04-30T09:47:26.842Z,18.91
2019-04-30T09:49:59.616Z,19.01
2019-04-30T09:52:33.888Z,19.30
2019-04-30T09:55:05.650Z,19.46
2019-04-30T09:57:38.997Z,19.36
2019-04-30T10:00:11.269Z,19.47
2019-04-30T10:02:43.317Z,19.61
2019-04-30T10:05:16.613Z,19.90
2019-04-30T10:07:49.402Z,20.10
2019-04-30T10:10:28.876Z,20.25
2019-04-30T10:13:00.983Z,20.50
2019-04-30T10:15:43.211Z,20.28
2019-04-30T10:18:15.080Z,20.37
2019-04-30T10:20:47.433Z,20.50
2019-04-30T10:23:19.433Z,20.61
2019-04-30T10:25:51.365Z,20.68
2019-04-30T10:28:23.235Z,21.22
2019-04-30T10:30:55.065Z,21.09
2019-04-30T10:33:28.666Z,21.28
2019-04-30T10:36:00.560Z,21.38
2019-04-30T10:38:32.411Z,21.23
2019-04-30T10:41:04.216Z,21.44
2019-04-30T10:43:36.277Z,21.65
2019-04-30T10:46:09.683Z,21.93
2019-04-30T10:48:43.446Z,22.09
2019-04-30T10:51:15.343Z,22.30
2019-04-30T10:53:48.619Z,22.15
2019-04-30T10:56:20.836Z,22.32
2019-04-30T10:58:52.708Z,22.33
2019-04-30T11:01:24.558Z,22.45
2019-04-30T11:03:56.356Z,22.68
2019-04-30T11:06:28.215Z,22.66
2019-04-30T11:09:00.375Z,22.69
2019-04-30T11:11:33.536Z,22.85
2019-04-30T11:14:05.387Z,23.05
2019-04-30T11:16:37.218Z,23.07
2019-04-30T11:19:09.510Z,23.07
2019-04-30T11:21:41.708Z,23.21
2019-04-30T11:24:14.724Z,23.66
2019-04-30T11:26:49.479Z,23.53
2019-04-30T11:29:22.899Z,23.42
2019-04-30T11:32:11.010Z,23.68
2019-04-30T11:34:42.848Z,23.85
2019-04-30T11:37:14.713Z,24.10
2019-04-30T11:39:46.597Z,24.54
2019-04-30T11:42:18.456Z,24.36
2019-04-30T11:44:50.340Z,24.29
2019-04-30T11:47:27.555Z,24.36
2019-04-30T11:49:59.746Z,24.53
2019-04-30T11:52:31.714Z,24.23
2019-04-30T11:55:03.574Z,24.70
2019-04-30T11:57:35.416Z,24.75
2019-04-30T12:00:10.730Z,24.26
2019-04-30T12:02:43.025Z,24.60
2019-04-30T12:05:20.841Z,24.29
2019-04-30T12:08:05.130Z,23.97
2019-04-30T12:10:41.298Z,23.74
2019-04-30T12:13:26.772Z,23.46
2019-04-30T12:15:59.114Z,23.44
2019-04-30T12:18:31.897Z,23.56
2019-04-30T12:21:03.776Z,23.28
2019-04-30T12:23:35.638Z,22.92
2019-04-30T12:26:09.186Z,22.79
2019-04-30T12:28:42.158Z,22.78
2019-04-30T12:31:13.965Z,22.68
2019-04-30T12:33:45.753Z,22.48
2019-04-30T12:36:18.892Z,22.32
2019-04-30T12:38:50.788Z,21.98
2019-04-30T12:41:22.647Z,21.99
2019-04-30T12:43:54.516Z,21.94
2019-04-30T12:46:26.304Z,22.00
2019-04-30T12:49:10.057Z,21.74
2019-04-30T12:52:08.634Z,21.75
2019-04-30T12:54:48.233Z,21.93
2019-04-30T12:57:39.389Z,21.88
2019-04-30T13:00:13.575Z,22.05
2019-04-30T13:02:45.543Z,22.40
2019-04-30T13:05:18.822Z,22.39
2019-04-30T13:07:51.360Z,22.35
2019-04-30T13:10:25.069Z,22.26
2019-04-30T13:12:57.695Z,22.33
2019-04-30T13:15:30.069Z,22.35
2019-04-30T13:18:01.858Z,22.39
2019-04-30T13:20:33.916Z,22.46
2019-04-30T13:23:06.310Z,22.40
2019-04-30T13:25:49.014Z,22.36
2019-04-30T13:28:16.438Z,22.43
2019-04-30T13:30:49.418Z,22.26
2019-04-30T13:33:33.383Z,22.07
2019-04-30T13:36:05.226Z,22.34
2019-04-30T13:39:01.875Z,22.50
2019-04-30T13:41:59.957Z,22.70
2019-04-30T13:44:36.328Z,22.39
2019-04-30T13:47:10.648Z,22.14
2019-04-30T13:49:41.828Z,22.14
2019-04-30T13:52:13.696Z,22.00
2019-04-30T13:54:45.563Z,22.07
2019-04-30T13:57:17.424Z,21.96
2019-04-30T13:59:51.025Z,22.12
2019-04-30T14:02:23.020Z,22.14
2019-04-30T14:05:13.879Z,22.29
2019-04-30T14:08:03.101Z,22.31
2019-04-30T14:10:39.266Z,22.46
2019-04-30T14:13:12.516Z,22.51
2019-04-30T14:15:46.329Z,22.30
2019-04-30T14:18:28.583Z,22.14
2019-04-30T14:20:51.741Z,21.98
2019-04-30T14:23:23.606Z,21.94
2019-04-30T14:25:56.872Z,21.80
2019-04-30T14:28:29.234Z,21.89
2019-04-30T14:31:01.202Z,21.94
2019-04-30T14:33:33.057Z,21.92
2019-04-30T14:36:04.917Z,22.01
2019-04-30T14:38:40.474Z,21.92
2019-04-30T14:41:12.117Z,21.88
2019-04-30T14:43:50.898Z,21.85
2019-04-30T14:46:41.837Z,22.14
2019-04-30T14:49:29.291Z,22.37
2019-04-30T14:52:01.524Z,22.67
2019-04-30T14:54:41.427Z,22.69
2019-04-30T14:57:34.778Z,22.89
2019-04-30T15:00:35.404Z,23.27
2019-04-30T15:03:10.541Z,23.40
2019-04-30T15:05:48.843Z,24.44
2019-04-30T15:08:15.999Z,24.99
2019-04-30T15:10:47.856Z,25.57
2019-04-30T15:13:19.711Z,25.76
2019-04-30T15:15:51.570Z,25.90
2019-04-30T15:18:23.429Z,26.54
2019-04-30T15:20:55.291Z,26.42
2019-04-30T15:23:58.665Z,26.61
2019-04-30T15:26:28.754Z,27.53
2019-04-30T15:29:01.153Z,26.89
2019-04-30T15:31:33.088Z,27.15
2019-04-30T15:34:11.110Z,27.77
2019-04-30T15:36:45.439Z,28.27
2019-04-30T15:39:39.332Z,28.24
2019-04-30T15:42:12.546Z,27.26
2019-04-30T15:44:45.897Z,27.22
2019-04-30T15:47:18.937Z,27.80
2019-04-30T15:49:50.985Z,28.05
2019-04-30T15:52:22.810Z,28.04
2019-04-30T15:54:54.685Z,28.07
2019-04-30T15:57:26.547Z,29.12
2019-04-30T15:59:58.391Z,30.46
2019-04-30T16:02:57.495Z,30.18
2019-04-30T16:05:36.841Z,30.17
2019-04-30T16:08:18.989Z,29.65
2019-04-30T16:11:10.618Z,29.06
2019-04-30T16:14:19.604Z,29.79
2019-04-30T16:17:08.137Z,28.76
2019-04-30T16:19:39.997Z,27.76
2019-04-30T16:22:12.167Z,26.98
2019-04-30T16:24:44.030Z,25.52
2019-04-30T16:27:15.858Z,25.19
2019-04-30T16:29:49.606Z,24.85
2019-04-30T16:32:22.166Z,24.59
2019-04-30T16:34:54.120Z,24.13
2019-04-30T16:37:25.973Z,24.28
2019-04-30T16:39:58.085Z,24.99
2019-04-30T16:42:30.096Z,25.47
2019-04-30T16:45:01.981Z,24.60
2019-04-30T16:47:35.722Z,23.81
2019-04-30T16:50:09.048Z,23.09
2019-04-30T16:52:41.066Z,22.73
2019-04-30T16:55:13.030Z,22.24
2019-04-30T16:57:45.066Z,22.21
2019-04-30T17:00:20.162Z,21.91
2019-04-30T17:02:56.885Z,21.68
2019-04-30T17:05:40.622Z,21.44
2019-04-30T17:08:21.560Z,21.39
2019-04-30T17:11:03.466Z,21.14
2019-04-30T17:16:33.526Z,20.80
2019-04-30T17:19:05.535Z,20.76
2019-04-30T17:21:37.315Z,20.67
2019-04-30T17:24:09.102Z,20.44
2019-04-30T17:26:40.979Z,20.36
2019-04-30T17:29:12.832Z,20.34
2019-04-30T17:31:44.695Z,20.19
2019-04-30T17:34:16.644Z,20.13
2019-04-30T17:36:51.190Z,19.95
2019-04-30T17:39:22.532Z,19.99
2019-04-30T17:41:54.417Z,19.86
2019-04-30T17:44:28.802Z,19.84
2019-04-30T17:47:00.199Z,19.85
2019-04-30T17:49:32.064Z,19.71
2019-04-30T17:52:04.102Z,19.65
2019-04-30T17:54:36.000Z,19.44
2019-04-30T17:57:10.398Z,19.34
2019-04-30T17:59:41.429Z,19.03
2019-04-30T18:02:14.936Z,18.95
2019-04-30T18:04:46.856Z,18.86
2019-04-30T18:07:19.775Z,18.75
2019-04-30T18:09:54.277Z,18.63
2019-04-30T18:12:25.420Z,18.46
2019-04-30T18:14:57.430Z,18.37
2019-04-30T18:17:29.505Z,18.28
2019-04-30T18:20:17.006Z,18.24
2019-04-30T18:23:11.482Z,18.09
2019-04-30T18:25:49.985Z,18.07
2019-04-30T18:28:21.851Z,17.94
2019-04-30T18:30:54.779Z,17.94
2019-04-30T18:33:26.905Z,17.84
2019-04-30T18:35:59.714Z,17.81
2019-04-30T18:38:31.642Z,17.77
2019-04-30T18:41:03.602Z,17.67
2019-04-30T18:43:37.897Z,17.61
2019-04-30T18:46:10.774Z,17.56
2019-04-30T18:48:42.790Z,17.60
2019-04-30T18:51:30.305Z,17.58
2019-04-30T18:53:50.384Z,17.44
2019-04-30T18:56:22.403Z,17.17
2019-04-30T18:58:54.371Z,16.73
2019-04-30T19:01:26.920Z,16.68
2019-04-30T19:04:01.203Z,16.58
2019-04-30T19:06:32.355Z,16.54
2019-04-30T19:09:29.809Z,16.51
2019-04-30T19:12:39.053Z,16.37
2019-04-30T19:15:48.534Z,16.35
2019-04-30T19:18:19.444Z,16.28
2019-04-30T19:20:53.649Z,16.11
2019-04-30T19:23:25.525Z,15.99
2019-04-30T19:25:59.555Z,15.94
2019-04-30T19:28:31.226Z,15.79
2019-04-30T19:31:03.166Z,15.78
2019-04-30T19:33:36.074Z,15.65
2019-04-30T19:36:13.082Z,15.58
2019-04-30T19:38:45.586Z,15.46
2019-04-30T19:41:18.927Z,15.26
2019-04-30T19:43:51.056Z,15.24
2019-04-30T19:46:23.019Z,15.13
2019-04-30T19:48:54.877Z,15.12
2019-04-30T19:51:26.775Z,15.03
2019-04-30T19:53:59.833Z,15.02
2019-04-30T19:56:32.916Z,14.88
2019-04-30T19:59:05.770Z,14.81
2019-04-30T20:01:39.100Z,14.68
2019-04-30T20:04:11.082Z,14.65
2019-04-30T20:06:42.939Z,14.58
2019-04-30T20:09:14.811Z,14.49
2019-04-30T20:11:49.155Z,14.40
2019-04-30T20:14:20.474Z,14.18
2019-04-30T20:16:53.245Z,14.07
2019-04-30T20:19:25.159Z,13.98
2019-04-30T20:21:59.273Z,13.99
2019-04-30T20:24:30.737Z,13.92
2019-04-30T20:27:06.932Z,13.97
2019-04-30T20:29:36.125Z,13.87
2019-04-30T20:32:08.650Z,13.80
2019-04-30T20:34:40.675Z,13.80
2019-04-30T20:37:12.476Z,13.67
2019-04-30T20:39:55.463Z,13.68
2019-04-30T20:42:27.672Z,13.56
2019-04-30T20:44:59.480Z,13.53
2019-04-30T20:47:31.349Z,13.51
2019-04-30T20:50:03.208Z,13.51
2019-04-30T20:52:35.068Z,13.30
2019-04-30T20:55:07.567Z,13.30
2019-04-30T20:57:40.473Z,13.34
2019-04-30T21:00:12.356Z,13.23
2019-04-30T21:02:44.211Z,13.25
2019-04-30T21:05:16.111Z,13.20
2019-04-30T21:07:48.039Z,13.11
2019-04-30T21:10:20.033Z,13.08
2019-04-30T21:12:51.967Z,13.01
2019-04-30T21:15:23.844Z,13.06
2019-04-30T21:17:55.730Z,13.01
2019-04-30T21:20:28.860Z,13.02
2019-04-30T21:23:01.118Z,13.01
2019-04-30T21:25:32.985Z,12.96
2019-04-30T21:28:04.951Z,12.89
2019-04-30T21:30:37.080Z,12.85
2019-04-30T21:33:15.125Z,12.83
2019-04-30T21:36:08.353Z,12.79
2019-04-30T21:38:40.119Z,12.75
2019-04-30T21:41:11.983Z,12.80
2019-04-30T21:43:43.816Z,12.77
2019-04-30T21:46:15.685Z,12.75
2019-04-30T21:48:48.826Z,12.77
2019-04-30T21:51:21.671Z,12.79
2019-04-30T21:53:53.470Z,12.68
2019-04-30T21:56:25.262Z,12.67
2019-04-30T21:58:57.137Z,12.50
2019-04-30T22:01:29.693Z,12.60
2019-04-30T22:04:01.762Z,12.62
2019-04-30T22:06:33.783Z,12.56
2019-04-30T22:09:07.297Z,12.56
2019-04-30T22:11:40.702Z,12.56
2019-04-30T22:14:12.597Z,12.55
2019-04-30T22:16:44.462Z,12.45
2019-04-30T22:19:17.334Z,12.45
2019-04-30T22:21:49.658Z,12.29
2019-04-30T22:24:21.493Z,12.29
2019-04-30T22:26:53.354Z,12.33
2019-04-30T22:29:37.051Z,12.34
2019-04-30T22:31:59.379Z,12.35
2019-04-30T22:34:31.769Z,12.34
2019-04-30T22:37:03.826Z,12.29
2019-04-30T22:40:03.560Z,12.23
2019-04-30T22:42:36.884Z,12.13
2019-04-30T22:45:30.118Z,12.12
2019-04-30T22:48:02.002Z,12.03
2019-04-30T22:50:34.000Z,12.08
2019-04-30T22:53:05.880Z,11.99
2019-04-30T22:55:37.760Z,12.00
2019-04-30T22:58:09.641Z,11.99
2019-04-30T23:00:44.155Z,11.94
2019-04-30T23:03:20.687Z,11.93
2019-04-30T23:05:52.508Z,12.00
2019-04-30T23:08:24.373Z,12.03
2019-04-30T23:10:56.259Z,12.09
2019-04-30T23:13:28.138Z,12.05
2019-04-30T23:16:00.172Z,11.98
2019-04-30T23:18:32.351Z,11.92
2019-04-30T23:21:04.314Z,11.90
2019-04-30T23:23:36.198Z,11.98
2019-04-30T23:26:09.055Z,12.04
2019-04-30T23:28:40.940Z,12.02
2019-04-30T23:31:12.820Z,12.06
2019-04-30T23:33:44.689Z,12.00
2019-04-30T23:36:16.613Z,12.03
2019-04-30T23:38:48.490Z,11.99
2019-04-30T23:41:20.378Z,11.88
2019-04-30T23:43:54.962Z,11.90
2019-04-30T23:46:25.782Z,11.92
2019-04-30T23:48:57.677Z,12.01
2019-04-30T23:51:29.542Z,12.12
2019-04-30T23:54:01.422Z,12.10
2019-04-30T23:56:33.300Z,11.92
2019-04-30T23:59:05.184Z,11.75
